Time;durP1;ratioP1;P1;durP2;ratioP2;P2;SDS_P1;SDS_P2;PMS_P1;PMS_P2;Temp;Humidity;BMP_temperature;BMP_pressure;BME280_temperature;BME280_humidity;BME280_pressure;Samples;Min_cycle;Max_cycle;Signal;HPM_P1;HPM_P2
2020/12/02 00:01:16;;;;;;;11.07;5.75;;;3.90;1.00;;;;;;5056798;28;20216;-78
2020/12/02 00:03:54;;;;;;;15.25;7.05;;;3.80;1.00;;;;;;5079310;28;20622;-77
2020/12/02 00:06:24;;;;;;;9.50;5.88;;;3.80;1.00;;;;;;5057094;28;20262;-78
2020/12/02 00:08:57;;;;;;;13.20;5.13;;;3.70;1.00;;;;;;5062620;28;20248;-77
2020/12/02 00:11:26;;;;;;;15.15;7.18;;;3.70;1.00;;;;;;5061072;28;20223;-77
2020/12/02 00:14:01;;;;;;;10.32;6.50;;;3.70;1.00;;;;;;5060579;28;20570;-77
2020/12/02 00:16:31;;;;;;;8.65;5.25;;;3.70;1.00;;;;;;5061171;28;20634;-77
2020/12/02 00:18:59;;;;;;;9.10;5.80;;;3.70;1.00;;;;;;5061423;28;20218;-77
2020/12/02 00:21:29;;;;;;;12.32;6.25;;;3.80;1.00;;;;;;5059670;28;20216;-77
2020/12/02 00:23:57;;;;;;;10.55;6.10;;;3.80;1.00;;;;;;5061694;28;20966;-77
2020/12/02 00:26:25;;;;;;;9.82;5.25;;;3.80;1.00;;;;;;5060235;28;20254;-78
2020/12/02 00:28:53;;;;;;;11.43;5.60;;;3.80;1.00;;;;;;5063119;28;20627;-78
2020/12/02 00:31:20;;;;;;;11.60;6.55;;;3.80;1.00;;;;;;5059847;28;20244;-79
2020/12/02 00:33:48;;;;;;;11.40;6.25;;;3.90;1.00;;;;;;5062176;28;20636;-77
2020/12/02 00:36:16;;;;;;;14.73;6.45;;;3.90;1.00;;;;;;5059904;28;21119;-77
2020/12/02 00:38:44;;;;;;;12.32;6.80;;;3.90;1.00;;;;;;5064604;28;20210;-77
2020/12/02 00:41:13;;;;;;;11.63;6.10;;;3.90;1.00;;;;;;5061536;28;20333;-77
2020/12/02 00:43:40;;;;;;;10.05;5.55;;;3.90;1.00;;;;;;5062033;28;20217;-77
2020/12/02 00:46:12;;;;;;;14.75;6.25;;;3.90;1.00;;;;;;5063891;28;20236;-77
2020/12/02 00:48:49;;;;;;;11.65;6.43;;;3.90;1.00;;;;;;5060346;28;20223;-76
2020/12/02 00:51:17;;;;;;;13.82;6.65;;;3.90;1.00;;;;;;5063066;28;20224;-77
2020/12/02 00:53:44;;;;;;;14.57;7.63;;;3.90;1.00;;;;;;5059638;28;20227;-76
2020/12/02 00:56:15;;;;;;;14.10;7.85;;;3.90;1.00;;;;;;5061504;28;20253;-77
2020/12/02 00:58:56;;;;;;;17.67;7.65;;;3.90;1.00;;;;;;5063358;28;20214;-77
2020/12/02 01:01:32;;;;;;;11.38;7.68;;;3.90;1.00;;;;;;5058860;28;20211;-77
2020/12/02 01:03:59;;;;;;;16.00;8.82;;;3.90;1.00;;;;;;5047525;28;20232;-77
2020/12/02 01:06:26;;;;;;;15.27;7.57;;;3.90;1.00;;;;;;5060653;28;20771;-77
2020/12/02 01:08:54;;;;;;;12.48;7.30;;;3.90;1.00;;;;;;5056082;28;20218;-76
2020/12/02 01:11:25;;;;;;;14.63;8.02;;;3.90;1.00;;;;;;5055213;28;20625;-78
2020/12/02 01:13:57;;;;;;;10.25;6.45;;;3.90;1.00;;;;;;5058729;28;20410;-78
2020/12/02 01:16:28;;;;;;;12.75;6.60;;;3.90;1.00;;;;;;5079657;28;20241;-78
2020/12/02 01:18:56;;;;;;;13.15;7.22;;;3.90;1.00;;;;;;5062651;28;20569;-77
2020/12/02 01:21:31;;;;;;;9.10;6.70;;;3.90;1.00;;;;;;5062334;28;20227;-78
2020/12/02 01:24:02;;;;;;;15.02;8.38;;;3.90;1.00;;;;;;5059787;28;20254;-78
2020/12/02 01:26:36;;;;;;;9.75;6.65;;;3.80;1.00;;;;;;5064071;28;20235;-78
2020/12/02 01:29:13;;;;;;;8.60;6.15;;;3.80;1.00;;;;;;5058746;28;20210;-78
2020/12/02 01:31:44;;;;;;;13.88;6.88;;;3.80;1.00;;;;;;5064608;28;20224;-77
2020/12/02 01:34:11;;;;;;;10.23;6.70;;;3.90;1.00;;;;;;5062275;28;20293;-78
2020/12/02 01:36:59;;;;;;;14.75;8.35;;;3.80;1.00;;;;;;5063222;28;20210;-77
2020/12/02 01:39:30;;;;;;;16.73;7.10;;;3.90;1.00;;;;;;5062132;28;20219;-78
2020/12/02 01:41:58;;;;;;;14.65;5.82;;;3.90;1.00;;;;;;5059849;28;20224;-78
2020/12/02 01:44:26;;;;;;;11.25;7.07;;;3.80;1.00;;;;;;5063343;28;20345;-77
2020/12/02 01:47:02;;;;;;;13.82;8.05;;;3.80;1.00;;;;;;5064214;28;20210;-77
2020/12/02 01:49:35;;;;;;;13.45;7.40;;;3.70;1.00;;;;;;5061343;28;20219;-77
2020/12/02 01:52:18;;;;;;;11.65;6.32;;;3.80;1.00;;;;;;5062792;28;20230;-77
2020/12/02 01:54:51;;;;;;;15.15;6.82;;;3.80;1.00;;;;;;5060197;28;20242;-78
2020/12/02 01:57:24;;;;;;;16.30;6.63;;;3.70;1.00;;;;;;5065481;28;20300;-77
2020/12/02 01:59:59;;;;;;;34.65;8.55;;;3.70;1.00;;;;;;5063897;28;20223;-77
2020/12/02 02:02:36;;;;;;;20.45;7.28;;;3.70;1.00;;;;;;5067716;28;20684;-77
2020/12/02 02:05:09;;;;;;;18.65;7.40;;;3.70;1.00;;;;;;5066825;28;20606;-77
2020/12/02 02:07:38;;;;;;;12.70;7.20;;;3.60;1.00;;;;;;5061926;28;20216;-77
2020/12/02 02:10:16;;;;;;;19.92;6.35;;;3.70;1.00;;;;;;5063078;28;20597;-76
2020/12/02 02:13:10;;;;;;;13.70;6.80;;;3.60;1.00;;;;;;5062574;28;20669;-76
2020/12/02 02:15:45;;;;;;;10.18;7.15;;;3.60;1.00;;;;;;5062797;28;20316;-76
2020/12/02 02:18:16;;;;;;;16.67;7.13;;;3.60;1.00;;;;;;5064902;28;20254;-77
2020/12/02 02:20:46;;;;;;;24.60;6.90;;;3.60;1.00;;;;;;5063795;28;20682;-76
2020/12/02 02:23:18;;;;;;;13.60;6.72;;;3.60;1.00;;;;;;5064712;28;20334;-77
2020/12/02 02:25:59;;;;;;;43.05;9.35;;;3.50;1.00;;;;;;5061718;28;20234;-77
2020/12/02 02:28:30;;;;;;;15.82;7.10;;;3.60;1.00;;;;;;5062596;28;20211;-77
2020/12/02 02:30:57;;;;;;;18.08;8.57;;;3.50;1.00;;;;;;5063554;28;20318;-77
2020/12/02 02:33:26;;;;;;;26.85;9.00;;;3.50;1.00;;;;;;5056676;28;20601;-77
2020/12/02 02:35:53;;;;;;;16.95;9.05;;;3.50;1.00;;;;;;5057849;28;20229;-77
2020/12/02 02:38:22;;;;;;;10.80;6.53;;;3.50;1.00;;;;;;5066222;28;20284;-77
2020/12/02 02:40:50;;;;;;;16.27;8.50;;;3.50;1.00;;;;;;5067085;28;20230;-77
2020/12/02 02:43:18;;;;;;;14.82;8.00;;;3.50;1.00;;;;;;5062423;28;20278;-77
2020/12/02 02:45:46;;;;;;;16.48;8.40;;;3.50;1.00;;;;;;5063980;28;20295;-76
2020/12/02 02:48:13;;;;;;;12.73;7.88;;;3.50;1.00;;;;;;5064204;28;20587;-77
2020/12/02 02:50:41;;;;;;;43.30;10.20;;;3.50;1.00;;;;;;5053178;28;20224;-77
2020/12/02 02:53:16;;;;;;;19.00;8.48;;;3.50;1.00;;;;;;5064277;28;20224;-78
2020/12/02 02:55:43;;;;;;;20.13;8.25;;;3.50;1.00;;;;;;5061207;28;20237;-76
2020/12/02 02:58:12;;;;;;;42.15;9.52;;;3.50;1.00;;;;;;5066081;28;20579;-76
2020/12/02 03:00:40;;;;;;;17.27;9.90;;;3.50;1.00;;;;;;5063058;28;20216;-78
2020/12/02 03:03:11;;;;;;;12.07;8.15;;;3.50;1.00;;;;;;5063638;28;20214;-77
2020/12/02 03:05:39;;;;;;;11.98;7.90;;;3.50;1.00;;;;;;5067091;28;20586;-78
2020/12/02 03:08:09;;;;;;;24.20;8.50;;;3.40;1.00;;;;;;5063214;28;20241;-78
2020/12/02 03:10:43;;;;;;;20.33;9.45;;;3.50;1.00;;;;;;5062921;28;20434;-78
2020/12/02 03:13:25;;;;;;;13.93;7.63;;;3.50;1.00;;;;;;5064820;28;20217;-78
2020/12/02 03:15:53;;;;;;;31.08;9.00;;;3.40;1.00;;;;;;5059827;28;20232;-77
2020/12/02 03:18:23;;;;;;;18.10;8.27;;;3.50;1.00;;;;;;5063394;28;20238;-78
2020/12/02 03:20:55;;;;;;;17.70;9.18;;;3.40;1.00;;;;;;5064191;28;20220;-78
2020/12/02 03:23:22;;;;;;;12.73;8.40;;;3.40;1.00;;;;;;5060549;28;20700;-78
2020/12/02 03:25:50;;;;;;;10.90;8.00;;;3.50;1.00;;;;;;5066283;28;20623;-78
2020/12/02 03:28:19;;;;;;;16.38;8.65;;;3.50;1.00;;;;;;5065167;28;20208;-78
2020/12/02 03:30:47;;;;;;;17.77;8.75;;;3.50;1.00;;;;;;5061370;28;20687;-77
2020/12/02 03:33:16;;;;;;;27.48;8.43;;;3.50;1.00;;;;;;5065793;28;20668;-79
2020/12/02 03:35:44;;;;;;;15.15;8.10;;;3.60;1.00;;;;;;5053736;28;20264;-78
2020/12/02 03:38:11;;;;;;;23.33;8.93;;;3.60;1.00;;;;;;5062985;28;20234;-78
2020/12/02 03:40:41;;;;;;;11.93;8.05;;;3.50;1.00;;;;;;5065697;28;20672;-77
2020/12/02 03:43:09;;;;;;;24.00;9.35;;;3.50;1.00;;;;;;5063182;28;20617;-78
2020/12/02 03:45:41;;;;;;;11.23;7.60;;;3.50;1.00;;;;;;5060905;28;20816;-78
2020/12/02 03:48:09;;;;;;;13.13;8.45;;;3.60;1.00;;;;;;5061662;28;20219;-77
2020/12/02 03:50:37;;;;;;;15.05;9.98;;;3.60;1.00;;;;;;5062318;28;20220;-78
2020/12/02 03:53:05;;;;;;;11.82;7.70;;;3.60;1.00;;;;;;5061220;28;20705;-77
2020/12/02 03:55:32;;;;;;;12.20;8.38;;;3.60;1.00;;;;;;5062982;28;20612;-76
2020/12/02 03:57:59;;;;;;;14.60;7.93;;;3.50;1.00;;;;;;5062748;28;20238;-77
2020/12/02 04:00:27;;;;;;;11.07;7.68;;;3.50;1.00;;;;;;5065485;28;20589;-76
2020/12/02 04:02:56;;;;;;;9.43;7.18;;;3.50;1.00;;;;;;5062066;28;20226;-76
2020/12/02 04:05:24;;;;;;;14.05;7.70;;;3.50;1.00;;;;;;5062537;28;20237;-77
2020/12/02 04:07:51;;;;;;;12.32;8.23;;;3.60;1.00;;;;;;5060673;28;20211;-77
2020/12/02 04:10:19;;;;;;;10.93;7.15;;;3.60;1.00;;;;;;5063987;28;20212;-77
2020/12/02 04:12:46;;;;;;;10.35;7.47;;;3.70;1.00;;;;;;5062905;28;20224;-76
2020/12/02 04:15:15;;;;;;;14.80;9.00;;;3.60;1.00;;;;;;5059264;28;20252;-77
2020/12/02 04:17:42;;;;;;;11.90;7.90;;;3.60;1.00;;;;;;5063166;28;20708;-77
2020/12/02 04:20:10;;;;;;;12.25;8.02;;;3.60;1.00;;;;;;5055999;28;21156;-77
2020/12/02 04:22:38;;;;;;;10.98;7.55;;;3.60;1.00;;;;;;5060638;28;20209;-76
2020/12/02 04:25:06;;;;;;;11.60;8.13;;;3.60;1.00;;;;;;5060848;28;20240;-77
2020/12/02 04:27:33;;;;;;;10.95;8.13;;;3.50;1.00;;;;;;5059884;28;20220;-76
2020/12/02 04:30:00;;;;;;;12.25;8.73;;;3.60;1.00;;;;;;5058119;28;20247;-77
2020/12/02 04:32:27;;;;;;;11.43;8.30;;;3.60;1.00;;;;;;5066526;28;20269;-75
2020/12/02 04:34:54;;;;;;;8.10;6.78;;;3.60;1.00;;;;;;5065793;28;20234;-76
2020/12/02 04:37:23;;;;;;;10.93;8.00;;;3.60;1.00;;;;;;5062202;28;21335;-75
2020/12/02 04:39:50;;;;;;;10.98;8.07;;;3.60;1.00;;;;;;5065984;28;20268;-77
2020/12/02 04:42:17;;;;;;;13.00;8.80;;;3.50;1.00;;;;;;5064034;28;20270;-75
2020/12/02 04:44:48;;;;;;;9.98;7.00;;;3.50;1.00;;;;;;5061930;28;20238;-76
2020/12/02 04:47:16;;;;;;;8.35;6.60;;;3.50;1.00;;;;;;5060860;28;20225;-75
2020/12/02 04:49:47;;;;;;;11.30;8.73;;;3.50;1.00;;;;;;5068238;28;20382;-76
2020/12/02 04:52:15;;;;;;;10.80;8.00;;;3.40;1.00;;;;;;5068587;28;20569;-76
2020/12/02 04:54:43;;;;;;;10.40;8.70;;;3.50;1.00;;;;;;5074145;28;20329;-78
2020/12/02 04:57:11;;;;;;;10.63;7.82;;;3.50;1.00;;;;;;5061144;28;20223;-77
2020/12/02 04:59:40;;;;;;;11.07;8.05;;;3.40;1.00;;;;;;5062087;28;20638;-77
2020/12/02 05:02:21;;;;;;;13.45;8.27;;;3.50;1.00;;;;;;5062863;28;20213;-77
2020/12/02 05:04:54;;;;;;;10.10;8.05;;;3.50;1.00;;;;;;5059566;28;20615;-76
2020/12/02 05:07:21;;;;;;;11.60;8.57;;;3.60;1.00;;;;;;5060646;28;20215;-77
2020/12/02 05:10:03;;;;;;;12.50;7.88;;;3.50;1.00;;;;;;5063019;28;20266;-77
2020/12/02 05:12:35;;;;;;;11.10;8.77;;;3.50;1.00;;;;;;5063497;28;20213;-77
2020/12/02 05:15:20;;;;;;;14.15;10.13;;;3.60;1.00;;;;;;5061659;28;20250;-76
2020/12/02 05:18:03;;;;;;;17.77;10.00;;;3.60;1.00;;;;;;5061006;28;20772;-75
2020/12/02 05:20:31;;;;;;;12.98;9.00;;;3.50;1.00;;;;;;5060638;28;20211;-74
2020/12/02 05:23:10;;;;;;;10.75;8.88;;;3.50;1.00;;;;;;5067181;28;20231;-73
2020/12/02 05:25:38;;;;;;;14.40;8.88;;;3.50;1.00;;;;;;5058716;28;20301;-75
2020/12/02 05:28:18;;;;;;;13.38;9.40;;;3.60;1.00;;;;;;5064878;28;20306;-76
2020/12/02 05:30:46;;;;;;;12.73;9.32;;;3.60;1.00;;;;;;5063882;28;20215;-75
2020/12/02 05:33:22;;;;;;;13.23;8.88;;;3.50;1.00;;;;;;5064810;28;20592;-76
2020/12/02 05:35:53;;;;;;;14.15;8.43;;;3.60;1.00;;;;;;5061703;28;20237;-74
2020/12/02 05:38:32;;;;;;;19.65;10.93;;;3.60;1.00;;;;;;5070877;28;20454;-76
2020/12/02 05:41:03;;;;;;;13.82;9.63;;;3.50;1.00;;;;;;5062377;28;20218;-77
2020/12/02 05:43:39;;;;;;;12.23;9.30;;;3.50;1.00;;;;;;5065594;28;20217;-78
2020/12/02 05:46:12;;;;;;;15.30;9.93;;;3.50;1.00;;;;;;5067120;28;20319;-76
2020/12/02 05:48:41;;;;;;;12.70;8.95;;;3.50;1.00;;;;;;5077581;28;20273;-76
2020/12/02 05:51:16;;;;;;;12.98;9.80;;;3.60;1.00;;;;;;5067626;28;20403;-78
2020/12/02 05:53:49;;;;;;;14.40;9.48;;;3.60;1.00;;;;;;5064401;28;20231;-77
2020/12/02 05:56:17;;;;;;;14.60;10.27;;;3.60;1.00;;;;;;5070554;28;20310;-78
2020/12/02 05:58:45;;;;;;;13.50;8.80;;;3.60;1.00;;;;;;5061645;28;20728;-77
2020/12/02 06:01:17;;;;;;;12.57;9.75;;;3.60;1.00;;;;;;5061946;28;20215;-76
2020/12/02 06:03:48;;;;;;;15.45;9.50;;;3.60;99.90;;;;;;5061015;28;20221;-76
2020/12/02 06:06:15;;;;;;;16.05;10.88;;;3.60;99.90;;;;;;5060728;28;20661;-76
2020/12/02 06:08:44;;;;;;;16.08;10.35;;;3.50;99.90;;;;;;5057886;28;20227;-76
2020/12/02 06:11:28;;;;;;;16.20;10.02;;;3.50;1.00;;;;;;5058158;28;20225;-76
2020/12/02 06:13:58;;;;;;;15.03;11.73;;;3.40;99.90;;;;;;5053632;28;20619;-73
2020/12/02 06:16:40;;;;;;;13.23;9.82;;;3.40;1.00;;;;;;5057082;28;20559;-75
2020/12/02 06:19:33;;;;;;;14.63;10.77;;;3.40;1.00;;;;;;5058254;28;20237;-75
2020/12/02 06:22:02;;;;;;;11.63;9.47;;;3.50;1.00;;;;;;5043037;28;20498;-76
2020/12/02 06:24:41;;;;;;;13.77;9.77;;;3.40;1.00;;;;;;5063235;28;20551;-76
2020/12/02 06:27:39;;;;;;;15.38;10.57;;;3.50;1.00;;;;;;5068250;28;20219;-76
2020/12/02 06:30:18;;;;;;;12.25;8.35;;;3.50;99.90;;;;;;5069568;28;20579;-75
2020/12/02 06:33:13;;;;;;;13.77;9.32;;;3.50;99.90;;;;;;5066135;28;20311;-75
2020/12/02 06:35:41;;;;;;;10.60;7.70;;;3.50;99.90;;;;;;5068592;28;20259;-75
2020/12/02 06:38:30;;;;;;;11.75;8.38;;;3.40;99.90;;;;;;5065497;28;20285;-76
2020/12/02 06:41:35;;;;;;;12.93;8.07;;;3.40;99.90;;;;;;5057960;28;20225;-75
2020/12/02 06:44:26;;;;;;;14.75;9.30;;;3.40;99.90;;;;;;5064603;28;20601;-76
2020/12/02 06:47:20;;;;;;;12.93;7.97;;;3.30;99.90;;;;;;5061938;28;20959;-75
2020/12/02 06:49:51;;;;;;;13.93;8.57;;;3.40;99.90;;;;;;5067112;28;20215;-75
2020/12/02 06:52:26;;;;;;;13.23;9.18;;;3.40;99.90;;;;;;5065546;28;20216;-76
2020/12/02 06:55:01;;;;;;;11.60;8.68;;;3.40;99.90;;;;;;5066587;28;20244;-75
2020/12/02 06:57:30;;;;;;;15.57;8.80;;;3.50;99.90;;;;;;5065058;28;20224;-76
2020/12/02 06:59:59;;;;;;;12.15;8.55;;;3.40;99.90;;;;;;5063155;28;20222;-75
2020/12/02 07:02:35;;;;;;;12.77;8.70;;;3.40;99.90;;;;;;5065304;28;20215;-75
2020/12/02 07:05:06;;;;;;;13.82;8.60;;;3.30;99.90;;;;;;5078885;28;20840;-76
2020/12/02 07:07:33;;;;;;;15.65;9.90;;;3.30;99.90;;;;;;5066015;28;20512;-75
2020/12/02 07:10:00;;;;;;;13.15;8.95;;;3.30;99.90;;;;;;5064651;28;20787;-76
2020/12/02 07:12:30;;;;;;;12.80;7.28;;;3.20;99.90;;;;;;5065122;28;20243;-76
2020/12/02 07:15:01;;;;;;;12.88;8.15;;;3.20;99.90;;;;;;5065462;28;20264;-75
2020/12/02 07:17:28;;;;;;;14.07;9.20;;;3.20;99.90;;;;;;5061220;28;20240;-75
2020/12/02 07:20:04;;;;;;;13.98;9.32;;;3.20;99.90;;;;;;5067261;28;20213;-75
2020/12/02 07:22:34;;;;;;;12.50;8.75;;;3.20;99.90;;;;;;5067916;28;20220;-76
2020/12/02 07:25:05;;;;;;;12.20;7.13;;;3.30;99.90;;;;;;5070247;28;20308;-75
2020/12/02 07:27:41;;;;;;;12.05;9.18;;;3.30;99.90;;;;;;5067845;28;20237;-75
2020/12/02 07:30:20;;;;;;;14.05;9.18;;;3.40;99.90;;;;;;5070041;28;20271;-76
2020/12/02 07:32:47;;;;;;;12.18;8.15;;;3.30;99.90;;;;;;5068244;28;20217;-75
2020/12/02 07:35:17;;;;;;;15.25;8.50;;;3.30;99.90;;;;;;5065053;28;20272;-75
2020/12/02 07:37:45;;;;;;;14.40;9.25;;;3.20;99.90;;;;;;5068659;28;20891;-75
2020/12/02 07:40:28;;;;;;;12.30;7.80;;;3.20;99.90;;;;;;5068376;28;20626;-76
2020/12/02 07:42:57;;;;;;;13.35;9.27;;;3.20;99.90;;;;;;5065948;28;20236;-75
2020/12/02 07:45:29;;;;;;;13.75;7.88;;;3.20;99.90;;;;;;5068332;28;21054;-75
2020/12/02 07:48:02;;;;;;;10.73;7.28;;;3.20;99.90;;;;;;5075694;28;20224;-76
2020/12/02 07:50:32;;;;;;;11.50;8.35;;;3.20;99.90;;;;;;5069040;28;20211;-76
2020/12/02 07:53:09;;;;;;;14.75;8.18;;;3.10;24.00;;;;;;5067649;28;20218;-76
2020/12/02 07:55:41;;;;;;;12.80;8.35;;;3.10;1.00;;;;;;5067925;28;20234;-76
2020/12/02 07:58:14;;;;;;;12.65;9.30;;;3.10;99.90;;;;;;5067674;28;20236;-76
2020/12/02 08:00:44;;;;;;;14.00;8.60;;;3.10;99.90;;;;;;5063028;28;20222;-76
2020/12/02 08:03:27;;;;;;;13.07;9.13;;;3.00;63.00;;;;;;5065341;28;20221;-76
2020/12/02 08:06:01;;;;;;;13.45;9.25;;;3.00;93.20;;;;;;5066939;28;20497;-73
2020/12/02 08:08:28;;;;;;;13.63;8.55;;;3.10;97.50;;;;;;5066134;28;20467;-76
2020/12/02 08:11:06;;;;;;;13.27;8.55;;;3.10;1.00;;;;;;5066328;28;20223;-75
2020/12/02 08:13:35;;;;;;;12.43;8.45;;;3.00;9.00;;;;;;5064998;28;20215;-75
2020/12/02 08:16:04;;;;;;;13.15;8.65;;;3.00;51.50;;;;;;5067479;28;20246;-75
2020/12/02 08:18:32;;;;;;;15.25;9.30;;;3.00;63.20;;;;;;5062080;28;20228;-74
2020/12/02 08:21:11;;;;;;;11.30;7.97;;;3.00;87.80;;;;;;5066553;28;20219;-74
2020/12/02 08:23:39;;;;;;;11.90;8.00;;;3.00;99.90;;;;;;5063791;28;20262;-75
2020/12/02 08:26:16;;;;;;;13.27;8.63;;;3.00;99.90;;;;;;5066863;28;20721;-75
2020/12/02 08:28:44;;;;;;;14.88;7.80;;;3.00;19.80;;;;;;5065708;28;20213;-74
2020/12/02 08:31:21;;;;;;;12.68;7.75;;;2.90;1.00;;;;;;5067297;28;20222;-75
2020/12/02 08:34:17;;;;;;;14.18;8.65;;;2.70;1.00;;;;;;5067054;28;20222;-74
2020/12/02 08:36:47;;;;;;;16.42;9.00;;;2.70;20.90;;;;;;5065283;28;20264;-74
2020/12/02 08:39:28;;;;;;;14.95;8.55;;;2.70;99.90;;;;;;5067008;28;20240;-74
2020/12/02 08:41:56;;;;;;;13.25;8.57;;;2.90;99.90;;;;;;5066411;28;20284;-75
2020/12/02 08:44:23;;;;;;;13.20;7.85;;;2.90;99.90;;;;;;5068245;28;20280;-74
2020/12/02 08:46:54;;;;;;;12.07;9.43;;;2.90;99.90;;;;;;5067775;28;20209;-74
2020/12/02 08:49:26;;;;;;;11.50;8.80;;;3.00;63.20;;;;;;5064438;28;20265;-74
2020/12/02 08:51:53;;;;;;;12.95;8.43;;;2.90;52.00;;;;;;5064234;28;20211;-74
2020/12/02 08:54:22;;;;;;;14.25;8.52;;;2.90;99.90;;;;;;5069264;28;20207;-74
2020/12/02 08:56:51;;;;;;;10.45;7.60;;;3.00;83.40;;;;;;5068110;28;20223;-75
2020/12/02 08:59:19;;;;;;;13.05;7.70;;;3.10;99.90;;;;;;5064145;28;20230;-75
2020/12/02 09:01:47;;;;;;;13.48;9.43;;;3.20;41.60;;;;;;5063181;28;20209;-75
2020/12/02 09:04:15;;;;;;;10.85;8.30;;;3.20;1.00;;;;;;5066211;28;20728;-74
2020/12/02 09:06:43;;;;;;;12.57;7.95;;;3.00;99.90;;;;;;5071355;28;20218;-74
2020/12/02 09:09:11;;;;;;;12.48;7.93;;;3.00;99.90;;;;;;5071102;28;20219;-73
2020/12/02 09:11:38;;;;;;;10.70;7.80;;;3.10;99.90;;;;;;5069300;28;20209;-75
2020/12/02 09:14:06;;;;;;;11.13;7.65;;;3.00;1.00;;;;;;5069272;28;20228;-74
2020/12/02 09:16:37;;;;;;;13.15;8.50;;;3.10;3.30;;;;;;5068268;28;20239;-74
2020/12/02 09:19:07;;;;;;;12.23;7.88;;;3.10;1.00;;;;;;5067942;28;20335;-75
2020/12/02 09:21:35;;;;;;;14.55;8.73;;;3.10;1.00;;;;;;5070237;28;20216;-75
2020/12/02 09:24:02;;;;;;;14.35;8.85;;;3.10;1.00;;;;;;5070528;28;20219;-75
2020/12/02 09:26:33;;;;;;;11.13;7.80;;;3.20;99.90;;;;;;5069128;28;20310;-75
2020/12/02 09:29:01;;;;;;;15.88;8.75;;;3.20;19.00;;;;;;5071918;28;20546;-72
2020/12/02 09:31:31;;;;;;;13.82;9.85;;;3.20;58.80;;;;;;5068883;28;21101;-74
2020/12/02 09:33:59;;;;;;;10.50;7.60;;;3.20;99.90;;;;;;5069047;28;20706;-74
2020/12/02 09:36:27;;;;;;;12.73;8.15;;;3.20;41.20;;;;;;5072352;28;20285;-74
2020/12/02 09:38:55;;;;;;;10.50;7.10;;;3.20;59.00;;;;;;5069947;28;20221;-74
2020/12/02 09:41:49;;;;;;;13.68;9.60;;;3.00;99.90;;;;;;5067531;28;20993;-74
2020/12/02 09:44:26;;;;;;;12.70;7.65;;;3.10;99.90;;;;;;5060027;28;20237;-74
2020/12/02 09:46:56;;;;;;;10.80;7.07;;;3.10;37.30;;;;;;5066922;28;20267;-75
2020/12/02 09:49:24;;;;;;;11.15;7.13;;;3.10;99.90;;;;;;5074157;28;20209;-74
2020/12/02 09:51:58;;;;;;;11.48;7.97;;;3.10;1.00;;;;;;5071883;28;20221;-74
2020/12/02 09:54:28;;;;;;;12.43;7.35;;;3.10;99.90;;;;;;5071866;28;20302;-75
2020/12/02 09:56:55;;;;;;;9.93;7.10;;;3.20;99.90;;;;;;5068735;28;20227;-75
2020/12/02 09:59:22;;;;;;;9.93;7.60;;;3.30;99.90;;;;;;5071227;28;20280;-75
2020/12/02 10:02:03;;;;;;;9.95;7.45;;;3.30;73.00;;;;;;5070387;28;20756;-74
2020/12/02 10:04:53;;;;;;;10.73;7.22;;;3.40;1.00;;;;;;5069712;28;20222;-74
2020/12/02 10:07:33;;;;;;;10.40;7.30;;;3.40;99.90;;;;;;5069053;28;20269;-74
2020/12/02 10:10:38;;;;;;;9.77;6.88;;;3.40;1.00;;;;;;5072775;28;20278;-75
2020/12/02 10:13:26;;;;;;;10.15;6.07;;;3.50;99.90;;;;;;5053283;28;20234;-74
2020/12/02 10:16:02;;;;;;;10.38;6.43;;;3.50;4.90;;;;;;5071100;28;20250;-74
2020/12/02 10:19:02;;;;;;;10.25;5.55;;;3.50;99.90;;;;;;5070226;28;20317;-75
2020/12/02 10:22:06;;;;;;;10.88;7.25;;;3.50;99.90;;;;;;5072149;28;20286;-75
2020/12/02 10:24:54;;;;;;;11.93;7.28;;;3.50;1.00;;;;;;5073102;28;20491;-76
2020/12/02 10:27:33;;;;;;;10.98;7.88;;;3.50;70.10;;;;;;5065517;28;20225;-75
2020/12/02 10:30:15;;;;;;;8.65;5.72;;;3.60;43.50;;;;;;5066629;28;20750;-75
2020/12/02 10:33:05;;;;;;;7.22;5.47;;;3.60;1.00;;;;;;5071333;28;20719;-74
2020/12/02 10:35:38;;;;;;;6.85;4.63;;;3.50;1.00;;;;;;5068216;28;20926;-74
2020/12/02 10:38:11;;;;;;;6.57;5.32;;;3.50;99.90;;;;;;5069070;28;20232;-74
2020/12/02 10:40:42;;;;;;;10.18;6.07;;;3.60;1.00;;;;;;5067281;28;20711;-74
2020/12/02 10:43:21;;;;;;;9.35;7.00;;;3.60;1.00;;;;;;5068815;28;20764;-73
2020/12/02 10:45:51;;;;;;;5.75;4.70;;;3.60;45.70;;;;;;5068552;28;20238;-75
2020/12/02 10:48:38;;;;;;;8.13;5.18;;;3.60;1.00;;;;;;5068087;28;20213;-75
2020/12/02 10:51:08;;;;;;;8.38;6.10;;;3.70;1.00;;;;;;5066396;28;20236;-74
2020/12/02 10:53:36;;;;;;;6.50;5.45;;;3.70;99.90;;;;;;5067970;28;20572;-74
2020/12/02 10:56:04;;;;;;;6.63;5.55;;;3.70;99.90;;;;;;5069738;28;20235;-75
2020/12/02 10:58:31;;;;;;;10.52;6.45;;;3.80;99.90;;;;;;5067883;28;20215;-74
2020/12/02 11:01:01;;;;;;;6.15;4.75;;;3.80;99.90;;;;;;5069740;28;20218;-74
2020/12/02 11:03:30;;;;;;;9.32;5.30;;;3.90;99.90;;;;;;5064660;28;20220;-74
2020/12/02 11:06:24;;;;;;;6.13;4.97;;;4.00;99.90;;;;;;5067950;28;20231;-75
2020/12/02 11:09:17;;;;;;;8.77;5.70;;;4.10;99.90;;;;;;5067229;28;20755;-74
2020/12/02 11:12:00;;;;;;;8.00;5.85;;;4.20;1.00;;;;;;5057969;28;20231;-75
2020/12/02 11:14:42;;;;;;;8.43;6.07;;;4.30;1.00;;;;;;5067692;28;20209;-74
2020/12/02 11:17:19;;;;;;;8.07;5.65;;;4.30;1.00;;;;;;5065696;28;20222;-75
2020/12/02 11:19:51;;;;;;;10.93;6.85;;;4.30;99.90;;;;;;5067897;28;20236;-75
2020/12/02 11:22:31;;;;;;;8.98;6.32;;;4.30;99.90;;;;;;5065630;28;20583;-75
2020/12/02 11:25:12;;;;;;;10.57;7.88;;;4.30;99.90;;;;;;5067417;28;20246;-75
2020/12/02 11:27:40;;;;;;;15.25;8.70;;;4.20;99.90;;;;;;5065073;28;21047;-74
2020/12/02 11:30:14;;;;;;;10.70;8.65;;;4.20;99.90;;;;;;5067774;28;20214;-74
2020/12/02 11:33:12;;;;;;;12.20;8.35;;;4.20;99.90;;;;;;5067995;28;20215;-75
2020/12/02 11:36:11;;;;;;;16.67;9.52;;;4.20;99.90;;;;;;5064578;28;20242;-75
2020/12/02 11:38:47;;;;;;;10.88;8.15;;;4.00;14.10;;;;;;5069191;28;20223;-73
2020/12/02 11:41:22;;;;;;;13.80;8.70;;;3.90;99.90;;;;;;5069459;28;20309;-74
2020/12/02 11:43:56;;;;;;;13.50;8.52;;;3.90;99.90;;;;;;5070496;28;20329;-74
2020/12/02 11:46:25;;;;;;;14.35;8.60;;;3.70;99.90;;;;;;5067102;28;20235;-73
2020/12/02 11:49:00;;;;;;;10.02;7.35;;;3.80;99.90;;;;;;5067020;28;20634;-75
2020/12/02 11:51:32;;;;;;;15.27;10.88;;;3.80;99.90;;;;;;5063885;28;20563;-74
2020/12/02 11:54:03;;;;;;;14.45;9.93;;;3.80;99.90;;;;;;5066484;28;21120;-75
2020/12/02 11:56:34;;;;;;;12.32;7.93;;;3.80;99.90;;;;;;5066699;28;21033;-74
2020/12/02 11:59:06;;;;;;;14.80;8.43;;;3.80;1.00;;;;;;5067041;28;20725;-73
2020/12/02 12:01:46;;;;;;;16.23;10.35;;;3.80;1.00;;;;;;5064942;28;20220;-74
2020/12/02 12:04:29;;;;;;;13.32;9.65;;;3.80;1.00;;;;;;5065907;28;20223;-72
2020/12/02 12:07:00;;;;;;;14.27;8.52;;;3.80;1.00;;;;;;5063857;28;20261;-75
2020/12/02 12:09:36;;;;;;;14.43;9.68;;;3.70;1.00;;;;;;5068000;28;20216;-73
2020/12/02 12:12:13;;;;;;;20.52;10.20;;;3.80;99.90;;;;;;5059000;28;20231;-73
2020/12/02 12:14:51;;;;;;;15.07;10.27;;;3.80;99.90;;;;;;5057639;28;22154;-74
2020/12/02 12:17:26;;;;;;;19.15;9.43;;;3.70;99.90;;;;;;5059446;28;20248;-73
2020/12/02 12:19:59;;;;;;;16.00;10.25;;;3.60;99.90;;;;;;5058499;28;20761;-73
2020/12/02 12:22:35;;;;;;;19.48;9.90;;;3.60;99.90;;;;;;5058689;28;20216;-73
2020/12/02 12:25:10;;;;;;;23.60;11.98;;;3.70;1.00;;;;;;5063452;28;20343;-74
2020/12/02 12:27:41;;;;;;;18.88;11.95;;;3.70;1.00;;;;;;5059389;28;20244;-73
2020/12/02 12:30:09;;;;;;;20.30;12.20;;;3.80;1.00;;;;;;5056712;28;20970;-72
2020/12/02 12:32:51;;;;;;;18.13;10.13;;;3.80;99.90;;;;;;5057948;28;20582;-73
2020/12/02 12:35:22;;;;;;;18.05;12.13;;;3.80;99.90;;;;;;5057566;28;20489;-74
2020/12/02 12:38:09;;;;;;;16.30;9.85;;;3.80;99.90;;;;;;5060564;28;20225;-73
2020/12/02 12:40:41;;;;;;;16.10;10.45;;;3.80;99.90;;;;;;5063361;28;20282;-74
2020/12/02 12:43:13;;;;;;;19.35;10.55;;;3.80;99.90;;;;;;5062132;28;20213;-74
2020/12/02 12:45:44;;;;;;;16.20;9.70;;;3.70;99.90;;;;;;5055607;28;20716;-74
2020/12/02 12:48:15;;;;;;;13.63;9.38;;;3.70;99.90;;;;;;5074124;28;20208;-74
2020/12/02 12:50:44;;;;;;;16.95;9.80;;;3.70;99.90;;;;;;5057689;28;20722;-74
2020/12/02 12:53:13;;;;;;;14.77;8.93;;;3.70;99.90;;;;;;5078895;28;20310;-75
2020/12/02 12:55:41;;;;;;;18.33;10.43;;;3.70;99.90;;;;;;5064469;28;20741;-74
2020/12/02 12:58:13;;;;;;;18.38;10.57;;;3.60;99.90;;;;;;5056678;28;20241;-73
2020/12/02 13:00:42;;;;;;;17.35;9.55;;;3.60;99.90;;;;;;5058878;28;20262;-74
2020/12/02 13:03:15;;;;;;;17.95;9.73;;;3.60;99.90;;;;;;5064670;28;20682;-75
2020/12/02 13:05:46;;;;;;;20.23;11.70;;;3.60;99.90;;;;;;5060113;28;20499;-74
2020/12/02 13:08:20;;;;;;;16.98;10.90;;;3.70;99.90;;;;;;5056612;28;20229;-73
2020/12/02 13:10:58;;;;;;;16.77;8.88;;;3.70;99.90;;;;;;5056728;28;20691;-73
2020/12/02 13:13:39;;;;;;;23.48;12.57;;;3.60;1.00;;;;;;5055848;28;20716;-74
2020/12/02 13:16:15;;;;;;;20.17;13.40;;;3.60;99.90;;;;;;5075692;28;21022;-74
2020/12/02 13:19:00;;;;;;;18.58;11.40;;;3.60;99.90;;;;;;5061215;28;20231;-74
2020/12/02 13:21:38;;;;;;;15.50;9.90;;;3.60;99.90;;;;;;5062926;28;20239;-74
2020/12/02 13:24:20;;;;;;;18.85;10.73;;;3.50;99.90;;;;;;5063421;28;20223;-74